Hlavní strana
METAR-TAF:

METAR-TAF

Letiště :

Luanda, Angola

zeměpisná šířka: 08-51S, zeměpisná délka: 013-14E, výška: 74 m

Aktuální stav počasí

Zpráva byla vytvořena před 50 minutami, v 11:00 UTC
vítr z různých směrů 3 kt
Teplota 29°C
Vlhkost vzduchu 70%
Tlak 1011 hPa
Viditelnost 10 km a více
Oblačno až skoro zataženo ve výšce 2300 ft

METAR: FNLU 261100Z VRB03KT 9999 BKN023 29/23 Q1011 NOSIG

Čas: 12:50 (11:50 UTC)

Předpověď počasí

Zpráva byla vytvořena před 50 minutami, v 11:00 UTC
Předpověď platná od 26 v 12 UTC do 27 v 18 UTC
Západní vítr 10 kt
Viditelnost 10 km a více
Skoro jasno ve výšce 2200 ft
Změna
od 26 v 19 UTC do 26 v 21 UTC
Jihojihozápadní vítr 6 kt
Oblačno až skoro zataženo ve výšce 2000 ft
Dočasný
od 27 v 01 UTC do 27 v 07 UTC
vítr z různých směrů 3 kt
Viditelnost: 8000 m
Změna
od 27 v 10 UTC do 27 v 12 UTC
Západní vítr 10 kt

TAF: FNLU 261100Z 2612/2718 27010KT 9999 FEW022 BECMG 2619/2621 21006KT BKN020 TEMPO 2701/2707 VRB03KT 8000 BECMG 2710/2712 28010KT

Stav a předpovědi počasí z více než 4 000 letišť (zprávy METAR a TAF).

Červené a žluté tečky na mapě představují dostupné meteorologické stanice.

Když kurzor umístíte na tečku, zobrazí se název stanice.

Pak kliknutím zobrazíte stav a předpověď počasí.

Chcete-li změnit mapu, kliknutím na zelené tlačítko se znaménkem +mapu přiblížíte, kliknutím na zelené tlačítko se znaménkem – mapu oddálíte a kliknutím na zelené šipky přejdete na sousední mapy.


METAR-TAF: